Olivenhain, California
Current Conditions -  °F | °C
As of 10:53 AM on Tuesday 27 Jan 2015 (Local Time) from KCRQ Reporting Station
Clear Clear  
Wind Chill: 68°   Ceiling: Unl
Heat Index: 68°   Visibility: 10mi
Dew Point: 49°   Wind: 0mph
Humidity: 50%   Direction: NA
Pressure: 30.18"   Gusts: NA
Location:  33.0541°N, 117.25°W
Report Text: KCRQ 271853Z AUTO 00000KT 10SM CLR 20/09 A3018 RMK AO2 SLP217 T02000094
Loading
Personal Weather Stations






























Interactive Weather Map New forecast layout! Learn more

10-Day Weather Forecast

Advertisements
Track Severe Weather on mobile